Time;durP1;ratioP1;P1;durP2;ratioP2;P2;SDS_P1;SDS_P2;PMS_P1;PMS_P2;Temp;Humidity;BMP_temperature;BMP_pressure;BME280_temperature;BME280_humidity;BME280_pressure;Samples;Min_cycle;Max_cycle;Signal;HPM_P1;HPM_P2
2021/07/08 00:00:35;;;;;;;;;;;;;;;22.83;79.99;99325.16;5010891;28;20945;-67
2021/07/08 00:03:01;;;;;;;;;;;;;;;22.92;80.08;99319.19;5009698;28;19924;-67
2021/07/08 00:05:27;;;;;;;;;;;;;;;22.91;73.42;99323.63;4993928;28;19963;-67
2021/07/08 00:07:52;;;;;;;;;;;;;;;22.82;79.03;99324.31;5009664;28;19921;-68
2021/07/08 00:10:19;;;;;;;;;;;;;;;22.93;79.22;99324.31;5027841;28;19994;-67
2021/07/08 00:12:45;;;;;;;;;;;;;;;22.93;78.80;99332.22;5009433;28;19921;-67
2021/07/08 00:15:11;;;;;;;;;;;;;;;22.63;81.69;99332.81;5009871;28;20318;-67
2021/07/08 00:17:37;;;;;;;;;;;;;;;22.73;76.76;99335.53;5027124;28;19924;-67
2021/07/08 00:20:07;;;;;;;;;;;;;;;22.73;81.32;99319.78;5009971;28;19921;-67
2021/07/08 00:22:32;;;;;;;;;;;;;;;22.53;80.99;99332.69;5026791;28;19960;-68
2021/07/08 00:24:57;;;;;;;;;;;;;;;22.26;81.83;99337.38;5028345;28;20398;-67
2021/07/08 00:27:23;;;;;;;;;;;;;;;22.48;80.89;99337.41;5026657;28;19929;-67
2021/07/08 00:29:48;;;;;;;;;;;;;;;22.48;82.37;99331.34;5010727;28;19921;-67
2021/07/08 00:32:15;;;;;;;;;;;;;;;22.41;83.83;99333.59;5027197;28;19928;-67
2021/07/08 00:34:41;;;;;;;;;;;;;;;22.43;80.01;99339.56;5010447;28;19914;-67
2021/07/08 00:37:06;;;;;;;;;;;;;;;22.46;79.98;99336.69;5025994;28;19913;-67
2021/07/08 00:39:31;;;;;;;;;;;;;;;22.29;83.49;99337.97;5009616;28;20363;-67
2021/07/08 00:41:57;;;;;;;;;;;;;;;22.34;80.30;99337.63;5026872;28;19917;-67
2021/07/08 00:44:22;;;;;;;;;;;;;;;22.31;75.45;99337.88;5026876;28;19932;-67
2021/07/08 00:46:47;;;;;;;;;;;;;;;22.14;80.86;99324.19;5026782;28;20389;-67
2021/07/08 00:49:14;;;;;;;;;;;;;;;22.21;80.06;99323.72;5001664;28;19921;-67
2021/07/08 00:51:39;;;;;;;;;;;;;;;21.45;85.25;99328.41;5025879;28;20024;-67
2021/07/08 00:54:05;;;;;;;;;;;;;;;22.05;82.42;99324.88;5008793;28;20020;-67
2021/07/08 00:56:34;;;;;;;;;;;;;;;22.03;83.63;99326.78;5027918;28;19916;-67
2021/07/08 00:59:08;;;;;;;;;;;;;;;22.05;83.50;99329.28;5009382;28;19990;-67
2021/07/08 01:01:34;;;;;;;;;;;;;;;22.05;83.13;99324.03;5026506;28;20285;-67
2021/07/08 01:04:02;;;;;;;;;;;;;;;21.79;83.78;99329.44;5009807;28;20012;-67
2021/07/08 01:06:28;;;;;;;;;;;;;;;21.78;83.15;99337.41;5007490;28;20601;-67
2021/07/08 01:08:53;;;;;;;;;;;;;;;21.76;82.25;99334.91;5007391;28;19925;-67
2021/07/08 01:11:19;;;;;;;;;;;;;;;21.70;86.17;99325.69;5007165;28;19917;-67
2021/07/08 01:13:44;;;;;;;;;;;;;;;21.63;82.99;99332.31;5025285;28;19925;-68
2021/07/08 01:16:09;;;;;;;;;;;;;;;21.63;85.36;99328.88;5023148;28;19921;-67
2021/07/08 01:18:35;;;;;;;;;;;;;;;21.48;86.29;99322.94;5006394;28;19925;-67
2021/07/08 01:21:19;;;;;;;;;;;;;;;21.33;82.91;99326.66;5025475;28;19921;-67
2021/07/08 01:23:44;;;;;;;;;;;;;;;21.07;88.44;99326.69;5025614;28;19925;-68
2021/07/08 01:26:09;;;;;;;;;;;;;;;21.51;87.12;99322.75;5008256;28;19962;-67
2021/07/08 01:28:35;;;;;;;;;;;;;;;21.61;86.32;99331.59;5007868;28;20087;-67
2021/07/08 01:31:00;;;;;;;;;;;;;;;21.51;83.92;99325.38;5026479;28;20370;-67
2021/07/08 01:33:26;;;;;;;;;;;;;;;21.39;86.77;99328.81;5024384;28;19921;-67
2021/07/08 01:35:51;;;;;;;;;;;;;;;21.46;86.42;99327.44;5007906;28;19917;-67
2021/07/08 01:38:17;;;;;;;;;;;;;;;21.48;87.47;99320.31;5026117;28;19928;-67
2021/07/08 01:40:42;;;;;;;;;;;;;;;21.23;84.25;99323.81;5007528;28;19936;-67
2021/07/08 01:43:07;;;;;;;;;;;;;;;21.20;85.48;99317.03;5025774;28;19921;-68
2021/07/08 01:45:33;;;;;;;;;;;;;;;20.98;86.29;99317.72;5025493;28;19917;-67
2021/07/08 01:47:58;;;;;;;;;;;;;;;20.42;90.52;99312.78;5025283;28;19917;-67
2021/07/08 01:50:24;;;;;;;;;;;;;;;21.06;92.25;99320.63;5025627;28;19917;-67
2021/07/08 01:52:49;;;;;;;;;;;;;;;20.97;88.94;99325.69;5007754;28;20379;-67
2021/07/08 01:55:15;;;;;;;;;;;;;;;20.91;86.60;99323.47;5007955;28;19962;-67
2021/07/08 01:57:44;;;;;;;;;;;;;;;20.93;91.95;99326.81;5008404;28;19917;-67
2021/07/08 02:00:13;;;;;;;;;;;;;;;20.93;89.96;99324.22;5007378;28;19920;-67
2021/07/08 02:02:38;;;;;;;;;;;;;;;20.73;91.29;99313.31;5025035;28;19923;-67
2021/07/08 02:05:04;;;;;;;;;;;;;;;21.02;84.65;99323.56;5007370;28;20357;-67
2021/07/08 02:07:29;;;;;;;;;;;;;;;20.93;88.20;99314.56;5008480;28;20460;-68
2021/07/08 02:09:55;;;;;;;;;;;;;;;20.93;82.61;99321.59;5024593;28;19964;-68
2021/07/08 02:12:20;;;;;;;;;;;;;;;19.88;99.85;99330.38;4990670;28;19921;-68
2021/07/08 02:14:46;;;;;;;;;;;;;;;20.24;94.53;99327.09;5024482;28;19975;-68
2021/07/08 02:17:11;;;;;;;;;;;;;;;20.44;94.54;99318.75;5025190;28;20362;-68
2021/07/08 02:19:37;;;;;;;;;;;;;;;20.51;96.35;99329.66;5024482;28;20410;-68
2021/07/08 02:22:02;;;;;;;;;;;;;;;20.50;89.91;99327.94;5025384;28;19952;-68
2021/07/08 02:24:28;;;;;;;;;;;;;;;20.82;92.51;99328.44;5007565;28;19948;-68
2021/07/08 02:26:53;;;;;;;;;;;;;;;20.87;94.17;99320.25;5007175;28;20477;-67
2021/07/08 02:29:22;;;;;;;;;;;;;;;20.52;92.00;99330.47;5024821;28;19968;-68
2021/07/08 02:31:47;;;;;;;;;;;;;;;20.62;94.86;99328.97;5024317;28;19953;-68
2021/07/08 02:34:12;;;;;;;;;;;;;;;19.60;100.00;99327.72;4990855;28;19971;-68
2021/07/08 02:36:38;;;;;;;;;;;;;;;20.03;96.19;99324.97;5024259;28;19956;-67
2021/07/08 02:39:05;;;;;;;;;;;;;;;20.42;95.00;99320.63;5007424;28;20973;-68
2021/07/08 02:41:30;;;;;;;;;;;;;;;20.66;89.37;99327.78;5024599;28;19932;-68
2021/07/08 02:43:55;;;;;;;;;;;;;;;19.93;97.22;99321.28;5024927;28;20374;-67
2021/07/08 02:46:21;;;;;;;;;;;;;;;19.77;100.00;99323.22;5024660;28;20422;-68
2021/07/08 02:48:46;;;;;;;;;;;;;;;19.84;99.36;99320.13;5006694;28;19928;-68
2021/07/08 02:51:11;;;;;;;;;;;;;;;20.25;92.10;99313.06;5024586;28;19917;-68
2021/07/08 02:53:37;;;;;;;;;;;;;;;20.44;93.78;99315.31;5023913;28;20401;-68
2021/07/08 02:56:02;;;;;;;;;;;;;;;19.45;100.00;99310.41;5007562;28;19917;-68
2021/07/08 02:58:29;;;;;;;;;;;;;;;19.87;95.63;99319.09;5023455;28;20323;-67
2021/07/08 03:00:54;;;;;;;;;;;;;;;19.17;100.00;99330.44;5007202;28;19925;-66
2021/07/08 03:03:20;;;;;;;;;;;;;;;18.36;100.00;99330.94;5024131;28;19983;-68
2021/07/08 03:05:45;;;;;;;;;;;;;;;18.76;100.00;99320.72;5024432;28;19921;-68
2021/07/08 03:08:11;;;;;;;;;;;;;;;19.02;100.00;99320.94;5024056;28;20345;-68
2021/07/08 03:10:37;;;;;;;;;;;;;;;18.45;100.00;99323.50;5007577;28;19913;-67
2021/07/08 03:13:02;;;;;;;;;;;;;;;18.65;100.00;99315.31;5005770;28;20382;-68
2021/07/08 03:15:28;;;;;;;;;;;;;;;19.37;100.00;99323.13;5024548;28;19990;-68
2021/07/08 03:17:54;;;;;;;;;;;;;;;19.49;100.00;99319.75;5024196;28;19960;-67
2021/07/08 03:20:27;;;;;;;;;;;;;;;19.81;94.79;99320.31;5007522;28;20306;-68
2021/07/08 03:22:52;;;;;;;;;;;;;;;20.20;95.54;99320.41;5005563;28;20591;-68
2021/07/08 03:25:18;;;;;;;;;;;;;;;19.63;98.47;99326.69;5008504;28;19936;-68
2021/07/08 03:27:44;;;;;;;;;;;;;;;19.77;96.45;99324.03;5010601;28;19913;-68
2021/07/08 03:30:10;;;;;;;;;;;;;;;19.82;92.48;99318.56;5009905;28;20878;-68
2021/07/08 03:32:36;;;;;;;;;;;;;;;19.79;95.32;99327.41;5009138;28;19920;-68
2021/07/08 03:35:02;;;;;;;;;;;;;;;19.84;94.38;99329.72;5010168;28;21002;-68
2021/07/08 03:37:27;;;;;;;;;;;;;;;19.75;98.45;99322.47;5028558;28;20290;-68
2021/07/08 03:39:54;;;;;;;;;;;;;;;19.92;97.12;99324.00;5028431;28;19917;-68
2021/07/08 03:42:19;;;;;;;;;;;;;;;19.97;93.43;99320.13;5009448;28;19921;-68
2021/07/08 03:44:44;;;;;;;;;;;;;;;20.02;91.46;99331.13;5028261;28;19925;-68
2021/07/08 03:47:10;;;;;;;;;;;;;;;20.07;93.28;99325.63;5026939;28;20051;-68
2021/07/08 03:49:35;;;;;;;;;;;;;;;19.83;93.52;99317.59;5027613;28;19922;-68
2021/07/08 03:52:01;;;;;;;;;;;;;;;19.69;99.95;99320.28;5009215;28;20433;-68
2021/07/08 03:54:27;;;;;;;;;;;;;;;19.19;100.00;99319.91;5011469;28;19920;-68
2021/07/08 03:56:53;;;;;;;;;;;;;;;18.75;100.00;99316.47;5008868;28;19917;-68
2021/07/08 03:59:19;;;;;;;;;;;;;;;18.79;100.00;99312.78;5027361;28;19921;-68
2021/07/08 04:01:44;;;;;;;;;;;;;;;18.70;100.00;99318.50;5027335;28;19982;-68
2021/07/08 04:04:10;;;;;;;;;;;;;;;18.79;100.00;99325.81;5027479;28;20038;-67
2021/07/08 04:06:35;;;;;;;;;;;;;;;19.15;100.00;99336.69;5009953;28;19917;-67
2021/07/08 04:09:00;;;;;;;;;;;;;;;19.21;100.00;99331.94;5009754;28;19925;-67
2021/07/08 04:11:26;;;;;;;;;;;;;;;19.95;99.68;99327.25;5027104;28;20053;-67
2021/07/08 04:13:51;;;;;;;;;;;;;;;20.09;97.77;99335.97;5010173;28;20375;-67
2021/07/08 04:16:17;;;;;;;;;;;;;;;20.23;98.17;99326.28;5027120;28;20287;-67
2021/07/08 04:18:42;;;;;;;;;;;;;;;20.23;97.60;99323.66;5026629;28;19932;-67
2021/07/08 04:21:07;;;;;;;;;;;;;;;19.80;100.00;99323.88;5025913;28;19925;-67
2021/07/08 04:23:33;;;;;;;;;;;;;;;19.60;100.00;99322.50;5027585;28;19917;-67
2021/07/08 04:25:58;;;;;;;;;;;;;;;19.36;100.00;99319.69;5027270;28;19916;-67
2021/07/08 04:28:24;;;;;;;;;;;;;;;19.30;100.00;99314.84;5010092;28;19956;-67
2021/07/08 04:30:49;;;;;;;;;;;;;;;20.12;100.00;99317.47;5026899;28;19975;-67
2021/07/08 04:33:14;;;;;;;;;;;;;;;20.39;95.08;99323.47;5009311;28;19917;-67
2021/07/08 04:35:40;;;;;;;;;;;;;;;20.22;96.36;99321.13;5026959;28;19917;-67
2021/07/08 04:38:09;;;;;;;;;;;;;;;20.03;100.00;99332.81;5009527;28;19971;-67
2021/07/08 04:40:35;;;;;;;;;;;;;;;20.37;95.91;99332.38;5026599;28;19932;-67
2021/07/08 04:43:01;;;;;;;;;;;;;;;20.46;95.64;99337.81;5026100;28;19913;-67
2021/07/08 04:45:26;;;;;;;;;;;;;;;20.51;97.66;99339.28;5008798;28;19921;-67
2021/07/08 04:47:52;;;;;;;;;;;;;;;20.64;96.88;99341.00;5023946;28;19974;-67
2021/07/08 04:50:21;;;;;;;;;;;;;;;20.64;100.00;99342.75;5025563;28;20485;-67
2021/07/08 04:52:46;;;;;;;;;;;;;;;20.53;99.16;99337.41;5008543;28;20007;-67
2021/07/08 04:55:13;;;;;;;;;;;;;;;20.37;100.00;99330.59;5008450;28;20016;-67
2021/07/08 04:57:39;;;;;;;;;;;;;;;20.47;98.90;99329.00;5027278;28;20007;-67
2021/07/08 05:00:05;;;;;;;;;;;;;;;20.59;98.60;99327.34;4990966;28;20019;-67
2021/07/08 05:02:31;;;;;;;;;;;;;;;20.64;93.88;99334.91;5008929;28;19917;-67
2021/07/08 05:04:56;;;;;;;;;;;;;;;20.77;97.35;99345.38;5008409;28;19924;-67
2021/07/08 05:07:21;;;;;;;;;;;;;;;20.66;99.07;99344.34;5025981;28;19943;-68
2021/07/08 05:09:47;;;;;;;;;;;;;;;20.88;99.27;99342.84;5027054;28;20510;-67
2021/07/08 05:12:12;;;;;;;;;;;;;;;20.72;95.26;99345.69;5026748;28;20307;-67
2021/07/08 05:14:38;;;;;;;;;;;;;;;20.70;100.00;99341.50;5009483;28;19917;-67
2021/07/08 05:17:03;;;;;;;;;;;;;;;20.59;100.00;99344.84;5009082;28;20286;-67
2021/07/08 05:19:29;;;;;;;;;;;;;;;20.79;99.12;99348.72;5008950;28;19917;-67
2021/07/08 05:21:55;;;;;;;;;;;;;;;20.86;95.36;99353.44;5009036;28;19921;-67
2021/07/08 05:24:22;;;;;;;;;;;;;;;20.82;100.00;99367.69;5026817;28;19960;-67
2021/07/08 05:26:48;;;;;;;;;;;;;;;20.86;95.61;99366.50;5008984;28;20428;-67
2021/07/08 05:29:13;;;;;;;;;;;;;;;20.72;100.00;99356.16;5007038;28;19921;-67
2021/07/08 05:31:39;;;;;;;;;;;;;;;20.81;100.00;99352.09;5007769;28;19960;-68
2021/07/08 05:34:04;;;;;;;;;;;;;;;20.30;100.00;99368.56;5027292;28;19921;-67
2021/07/08 05:36:29;;;;;;;;;;;;;;;20.63;99.83;99375.09;5024983;28;19921;-67
2021/07/08 05:38:55;;;;;;;;;;;;;;;20.85;99.67;99371.88;5026711;28;19995;-67
2021/07/08 05:41:20;;;;;;;;;;;;;;;20.98;97.85;99383.19;5025374;28;20358;-67
2021/07/08 05:43:46;;;;;;;;;;;;;;;21.03;97.95;99372.41;5026806;28;20468;-68
2021/07/08 05:46:11;;;;;;;;;;;;;;;21.12;91.74;99371.75;5008532;28;19917;-66
2021/07/08 05:48:37;;;;;;;;;;;;;;;20.74;99.37;99375.22;5024673;28;19917;-67
2021/07/08 05:51:02;;;;;;;;;;;;;;;20.96;97.02;99381.59;5008584;28;19943;-67
2021/07/08 05:53:28;;;;;;;;;;;;;;;21.29;99.44;99378.41;5008938;28;19913;-67
2021/07/08 05:55:53;;;;;;;;;;;;;;;21.27;98.47;99375.91;5026266;28;19920;-67
2021/07/08 05:58:18;;;;;;;;;;;;;;;21.36;93.93;99373.59;5025349;28;20540;-67
2021/07/08 06:00:47;;;;;;;;;;;;;;;21.12;98.30;99371.75;5023962;28;19929;-67
2021/07/08 06:03:13;;;;;;;;;;;;;;;21.02;96.78;99368.91;5008338;28;20049;-67
2021/07/08 06:05:38;;;;;;;;;;;;;;;21.12;97.40;99376.13;5008046;28;19956;-66
2021/07/08 06:08:04;;;;;;;;;;;;;;;21.50;92.89;99387.41;5024739;28;20013;-66
2021/07/08 06:10:29;;;;;;;;;;;;;;;21.58;92.83;99378.19;5024712;28;19921;-67
2021/07/08 06:12:55;;;;;;;;;;;;;;;21.89;90.43;99376.78;5007885;28;19924;-67
2021/07/08 06:15:20;;;;;;;;;;;;;;;21.74;94.01;99370.03;5025924;28;19925;-67
2021/07/08 06:17:46;;;;;;;;;;;;;;;21.74;96.56;99372.66;5025612;28;19913;-66
2021/07/08 06:20:13;;;;;;;;;;;;;;;21.80;95.82;99367.78;5008247;28;19974;-67
2021/07/08 06:22:39;;;;;;;;;;;;;;;22.07;98.13;99370.19;5008476;28;19917;-66
2021/07/08 06:25:04;;;;;;;;;;;;;;;21.74;92.11;99372.66;5008258;28;19925;-67
2021/07/08 06:27:30;;;;;;;;;;;;;;;21.79;93.44;99374.00;5025650;28;19928;-67
2021/07/08 06:29:55;;;;;;;;;;;;;;;21.89;93.41;99379.41;5025171;28;19971;-67
2021/07/08 06:32:20;;;;;;;;;;;;;;;22.27;92.92;99370.53;5008103;28;19920;-67
2021/07/08 06:34:46;;;;;;;;;;;;;;;22.26;90.15;99374.09;5008120;28;20352;-67
2021/07/08 06:37:11;;;;;;;;;;;;;;;22.28;87.79;99377.44;5006599;28;19917;-67
2021/07/08 06:39:37;;;;;;;;;;;;;;;22.02;93.24;99389.84;5006420;28;19944;-66
2021/07/08 06:42:02;;;;;;;;;;;;;;;21.87;97.91;99392.66;5007663;28;19921;-67
2021/07/08 06:44:28;;;;;;;;;;;;;;;22.54;92.49;99392.09;5006289;28;19916;-67
2021/07/08 06:46:54;;;;;;;;;;;;;;;22.68;90.78;99393.66;4998482;28;20442;-67
2021/07/08 06:49:20;;;;;;;;;;;;;;;23.15;87.88;99393.63;5022879;28;19995;-67
2021/07/08 06:51:45;;;;;;;;;;;;;;;22.95;92.23;99398.59;5023086;28;19921;-67
2021/07/08 06:54:10;;;;;;;;;;;;;;;23.65;87.80;99401.94;5004683;28;20341;-67
2021/07/08 06:56:36;;;;;;;;;;;;;;;24.34;86.65;99403.41;5023160;28;19924;-67
2021/07/08 06:59:01;;;;;;;;;;;;;;;24.26;83.51;99413.72;5023053;28;19917;-67
2021/07/08 07:01:27;;;;;;;;;;;;;;;24.34;78.24;99411.31;5024244;28;19925;-67
2021/07/08 07:03:52;;;;;;;;;;;;;;;24.96;79.96;99407.84;5023688;28;19925;-67
2021/07/08 07:06:17;;;;;;;;;;;;;;;25.50;81.82;99412.94;5023668;28;19976;-67
2021/07/08 07:08:43;;;;;;;;;;;;;;;25.65;77.81;99412.41;5023687;28;19921;-67
2021/07/08 07:11:09;;;;;;;;;;;;;;;25.91;74.80;99408.47;5024965;28;19967;-67
2021/07/08 07:13:34;;;;;;;;;;;;;;;23.97;78.46;99411.66;5024293;28;19917;-67
2021/07/08 07:16:01;;;;;;;;;;;;;;;24.55;71.28;99412.19;5024468;28;19917;-67
2021/07/08 07:18:26;;;;;;;;;;;;;;;25.41;69.95;99410.16;5006669;28;19923;-67
2021/07/08 07:20:52;;;;;;;;;;;;;;;24.91;75.39;99415.31;5007544;28;20400;-67
2021/07/08 07:23:17;;;;;;;;;;;;;;;25.88;71.14;99413.03;5023847;28;20981;-67
2021/07/08 07:25:43;;;;;;;;;;;;;;;26.38;64.10;99420.00;5025006;28;20015;-67
2021/07/08 07:28:09;;;;;;;;;;;;;;;26.35;58.57;99424.75;5007521;28;19917;-67
2021/07/08 07:30:34;;;;;;;;;;;;;;;26.85;58.94;99425.41;5025237;28;19942;-67
2021/07/08 07:33:00;;;;;;;;;;;;;;;26.66;56.91;99428.94;5006826;28;19963;-67
2021/07/08 07:35:25;;;;;;;;;;;;;;;26.34;59.67;99439.75;5008427;28;19936;-67
2021/07/08 07:37:51;;;;;;;;;;;;;;;27.10;55.48;99429.22;5024924;28;19921;-67
2021/07/08 07:40:16;;;;;;;;;;;;;;;26.34;48.76;99429.19;5007930;28;19917;-68
2021/07/08 07:42:42;;;;;;;;;;;;;;;27.05;52.38;99428.81;5005628;28;20016;-68
2021/07/08 07:45:08;;;;;;;;;;;;;;;27.75;51.70;99431.03;4991045;28;20377;-67
2021/07/08 07:47:33;;;;;;;;;;;;;;;27.05;51.47;99444.69;5006046;28;19921;-67
2021/07/08 07:50:01;;;;;;;;;;;;;;;27.85;57.55;99439.78;5007213;28;19920;-67
2021/07/08 07:52:27;;;;;;;;;;;;;;;27.60;52.53;99432.50;5025718;28;19924;-67
2021/07/08 07:54:52;;;;;;;;;;;;;;;27.03;57.42;99436.06;5006809;28;19917;-67
2021/07/08 07:57:18;;;;;;;;;;;;;;;27.35;56.77;99436.66;4999299;28;19917;-67
2021/07/08 07:59:43;;;;;;;;;;;;;;;27.09;52.00;99432.00;4991380;28;19966;-67
2021/07/08 08:02:13;;;;;;;;;;;;;;;27.92;51.64;99435.53;5025566;28;20401;-67
2021/07/08 08:04:44;;;;;;;;;;;;;;;28.17;48.18;99427.84;5008675;28;19917;-67
2021/07/08 08:09:54;;;;;;;;;;;;;;;26.53;55.52;99438.91;5011059;28;20034;-66
2021/07/08 08:12:19;;;;;;;;;;;;;;;25.69;66.08;99439.38;5010565;28;20410;-66
2021/07/08 08:14:44;;;;;;;;;;;;;;;26.27;62.94;99428.94;5011767;28;19974;-67
2021/07/08 08:17:10;;;;;;;;;;;;;;;27.79;58.03;99421.81;5029811;28;19978;-66
2021/07/08 08:19:35;;;;;;;;;;;;;;;25.85;65.66;99428.31;5030212;28;20510;-66
2021/07/08 08:22:01;;;;;;;;;;;;;;;26.98;57.68;99419.81;5029579;28;19913;-66
2021/07/08 08:24:26;;;;;;;;;;;;;;;27.49;59.18;99417.69;5029989;28;19913;-67
2021/07/08 08:26:52;;;;;;;;;;;;;;;27.35;63.80;99419.00;5011771;28;19913;-66
2021/07/08 08:29:18;;;;;;;;;;;;;;;28.19;47.65;99422.38;5029694;28;19913;-63
2021/07/08 08:31:44;;;;;;;;;;;;;;;26.35;58.38;99433.50;5030002;28;19971;-66
2021/07/08 08:34:09;;;;;;;;;;;;;;;25.41;65.27;99431.25;5031262;28;19917;-67
2021/07/08 08:36:35;;;;;;;;;;;;;;;26.66;58.10;99422.78;5013353;28;19979;-67
2021/07/08 08:39:00;;;;;;;;;;;;;;;27.35;59.43;99416.34;5030666;28;19913;-68
2021/07/08 08:41:26;;;;;;;;;;;;;;;27.86;60.03;99414.97;5013019;28;19923;-68
2021/07/08 08:43:52;;;;;;;;;;;;;;;26.83;57.39;99408.03;5030951;28;19917;-68
2021/07/08 08:46:18;;;;;;;;;;;;;;;28.46;53.51;99422.28;5029311;28;19921;-68
2021/07/08 08:48:43;;;;;;;;;;;;;;;27.77;53.06;99413.19;5008550;28;19917;-68
2021/07/08 08:51:09;;;;;;;;;;;;;;;27.22;56.97;99418.50;5024535;28;20330;-68
2021/07/08 08:53:35;;;;;;;;;;;;;;;26.62;63.98;99427.53;5006807;28;19920;-68
2021/07/08 08:56:02;;;;;;;;;;;;;;;29.34;55.71;99426.69;5022400;28;19917;-69
2021/07/08 08:58:27;;;;;;;;;;;;;;;27.68;60.50;99424.66;5024715;28;19924;-68
2021/07/08 09:00:57;;;;;;;;;;;;;;;27.48;62.82;99424.78;5005998;28;19929;-68
2021/07/08 09:03:25;;;;;;;;;;;;;;;29.67;50.42;99417.00;5022762;28;19921;-68
2021/07/08 09:06:07;;;;;;;;;;;;;;;29.51;48.89;99430.22;5006802;28;19931;-68
2021/07/08 09:08:36;;;;;;;;;;;;;;;28.98;48.19;99424.16;5022562;28;19948;-68
2021/07/08 09:11:02;;;;;;;;;;;;;;;28.06;49.94;99430.72;5024871;28;19924;-68
2021/07/08 09:13:48;;;;;;;;;;;;;;;27.12;54.89;99429.91;5024348;28;20302;-68
2021/07/08 09:16:14;;;;;;;;;;;;;;;27.75;46.46;99431.84;5023862;28;19920;-68
2021/07/08 09:18:40;;;;;;;;;;;;;;;27.59;50.88;99425.56;5007158;28;20572;-68
2021/07/08 09:21:19;;;;;;;;;;;;;;;27.15;54.57;99433.25;5025219;28;19932;-68
2021/07/08 09:24:03;;;;;;;;;;;;;;;27.62;46.31;99431.38;5022462;28;19917;-68
2021/07/08 09:26:29;;;;;;;;;;;;;;;27.72;49.42;99440.09;5023721;28;19948;-68
2021/07/08 09:29:13;;;;;;;;;;;;;;;26.17;50.44;99449.19;5022065;28;20957;-68
2021/07/08 09:31:38;;;;;;;;;;;;;;;28.40;48.70;99441.44;5010600;28;19960;-68
2021/07/08 09:34:14;;;;;;;;;;;;;;;28.54;51.94;99440.94;5022914;28;19960;-68
2021/07/08 09:36:39;;;;;;;;;;;;;;;28.20;57.86;99446.06;5005376;28;19931;-68
2021/07/08 09:39:05;;;;;;;;;;;;;;;28.83;47.53;99454.88;5004969;28;19917;-68
2021/07/08 09:41:30;;;;;;;;;;;;;;;28.59;58.44;99455.53;5005128;28;19925;-68
2021/07/08 09:43:55;;;;;;;;;;;;;;;29.09;49.81;99445.13;5006452;28;19917;-68
2021/07/08 09:46:34;;;;;;;;;;;;;;;29.46;49.33;99448.47;5023815;28;19952;-68
2021/07/08 09:49:07;;;;;;;;;;;;;;;29.73;47.34;99434.16;5006775;28;19963;-68
2021/07/08 09:51:33;;;;;;;;;;;;;;;30.54;44.70;99436.09;5006676;28;20007;-68
2021/07/08 09:54:07;;;;;;;;;;;;;;;29.99;49.16;99426.91;5006236;28;20016;-68
2021/07/08 09:56:43;;;;;;;;;;;;;;;30.67;41.68;99432.91;5023353;28;19994;-68
2021/07/08 09:59:08;;;;;;;;;;;;;;;29.13;47.05;99433.22;4991791;28;19921;-68
2021/07/08 10:01:34;;;;;;;;;;;;;;;28.86;45.04;99420.94;5005677;28;20132;-68
2021/07/08 10:04:00;;;;;;;;;;;;;;;29.45;42.28;99426.41;5006833;28;19928;-68
2021/07/08 10:06:25;;;;;;;;;;;;;;;30.33;43.68;99420.66;5006591;28;19932;-68
2021/07/08 10:08:51;;;;;;;;;;;;;;;31.30;39.52;99423.31;4990823;28;19925;-68
2021/07/08 10:11:19;;;;;;;;;;;;;;;29.91;45.65;99418.94;5005366;28;19952;-68
2021/07/08 10:13:44;;;;;;;;;;;;;;;28.82;48.11;99424.88;5006569;28;20360;-68
2021/07/08 10:16:10;;;;;;;;;;;;;;;29.94;42.77;99415.94;5005318;28;20011;-68
2021/07/08 10:18:39;;;;;;;;;;;;;;;32.26;41.12;99402.66;5005853;28;19921;-68
2021/07/08 10:21:05;;;;;;;;;;;;;;;30.89;37.31;99409.34;5005511;28;20522;-68
2021/07/08 10:23:34;;;;;;;;;;;;;;;29.91;42.99;99416.28;5005793;28;19917;-68
2021/07/08 10:26:00;;;;;;;;;;;;;;;32.18;43.64;99403.53;5005154;28;19944;-68
2021/07/08 10:28:26;;;;;;;;;;;;;;;32.16;36.57;99396.72;5004966;28;19917;-68
2021/07/08 10:30:52;;;;;;;;;;;;;;;30.57;39.14;99403.03;5005595;28;20700;-68
2021/07/08 10:33:19;;;;;;;;;;;;;;;31.09;37.27;99397.31;4988320;28;20058;-68
2021/07/08 10:35:46;;;;;;;;;;;;;;;29.98;37.87;99404.00;4989016;28;19943;-68
2021/07/08 10:38:30;;;;;;;;;;;;;;;29.62;38.14;99390.13;5023371;28;19921;-68
2021/07/08 10:40:56;;;;;;;;;;;;;;;28.54;43.19;99385.28;5003801;28;20599;-68
2021/07/08 10:43:57;;;;;;;;;;;;;;;28.89;39.70;99391.47;5003976;28;19995;-68
2021/07/08 10:46:33;;;;;;;;;;;;;;;29.83;40.73;99392.34;5023077;28;20036;-69
2021/07/08 10:48:58;;;;;;;;;;;;;;;31.23;37.29;99393.09;5005126;28;19918;-68
2021/07/08 10:51:27;;;;;;;;;;;;;;;32.42;37.12;99391.84;5004159;28;19917;-69
2021/07/08 10:53:52;;;;;;;;;;;;;;;30.14;36.64;99397.03;4989641;28;20286;-68
2021/07/08 10:56:22;;;;;;;;;;;;;;;30.32;37.67;99397.75;5002996;28;19913;-68
2021/07/08 10:58:51;;;;;;;;;;;;;;;30.01;40.07;99400.19;5003613;28;19921;-68
2021/07/08 11:01:22;;;;;;;;;;;;;;;28.59;37.90;99400.72;5022925;28;19925;-68
2021/07/08 11:03:51;;;;;;;;;;;;;;;28.40;40.40;99399.06;5021802;28;19928;-67
2021/07/08 11:06:25;;;;;;;;;;;;;;;30.49;37.58;99395.88;5022647;28;19921;-67
2021/07/08 11:09:02;;;;;;;;;;;;;;;30.06;37.18;99391.72;5023553;28;19936;-67
2021/07/08 11:11:28;;;;;;;;;;;;;;;30.32;41.14;99380.97;5004876;28;19925;-66
2021/07/08 11:13:54;;;;;;;;;;;;;;;30.38;40.00;99381.13;5021535;28;20382;-65
2021/07/08 11:16:38;;;;;;;;;;;;;;;29.06;40.72;99380.94;5021484;28;20263;-65
2021/07/08 11:19:03;;;;;;;;;;;;;;;30.84;38.29;99381.41;5022501;28;19920;-65
2021/07/08 11:21:47;;;;;;;;;;;;;;;30.58;39.46;99370.13;5021221;28;19938;-65
2021/07/08 11:24:16;;;;;;;;;;;;;;;31.63;42.00;99362.78;5021763;28;19917;-65
2021/07/08 11:26:52;;;;;;;;;;;;;;;31.73;37.02;99361.75;5004737;28;20389;-65
2021/07/08 11:29:35;;;;;;;;;;;;;;;30.41;37.10;99370.16;5021433;28;19917;-65
2021/07/08 11:32:01;;;;;;;;;;;;;;;31.48;40.45;99361.06;5020986;28;20022;-66
2021/07/08 11:34:27;;;;;;;;;;;;;;;30.18;38.33;99366.50;5004430;28;19968;-66
2021/07/08 11:36:53;;;;;;;;;;;;;;;31.22;37.00;99362.97;5021511;28;20016;-65
2021/07/08 11:39:18;;;;;;;;;;;;;;;31.05;39.04;99366.72;5021675;28;19917;-66
2021/07/08 11:41:44;;;;;;;;;;;;;;;31.00;37.83;99363.75;5022737;28;19924;-66
2021/07/08 11:44:10;;;;;;;;;;;;;;;31.47;39.77;99360.22;5002648;28;19931;-65
2021/07/08 11:46:35;;;;;;;;;;;;;;;31.49;36.52;99363.53;5006946;28;20011;-65
2021/07/08 11:49:01;;;;;;;;;;;;;;;32.17;32.85;99366.44;5007104;28;20011;-65
2021/07/08 11:51:29;;;;;;;;;;;;;;;31.80;33.00;99370.69;5006697;28;19975;-65
2021/07/08 11:53:54;;;;;;;;;;;;;;;30.83;38.41;99370.91;5025584;28;19924;-65
2021/07/08 11:56:21;;;;;;;;;;;;;;;30.32;37.65;99379.13;5007868;28;19917;-65
2021/07/08 11:58:46;;;;;;;;;;;;;;;28.08;45.50;99386.38;5025775;28;19975;-65
2021/07/08 12:01:12;;;;;;;;;;;;;;;28.42;52.94;99377.69;5025468;28;20014;-65
2021/07/08 12:03:44;;;;;;;;;;;;;;;25.83;58.06;99385.38;5026949;28;19920;-64
2021/07/08 12:06:17;;;;;;;;;;;;;;;27.50;50.39;99375.19;5025457;28;20555;-65
2021/07/08 12:08:48;;;;;;;;;;;;;;;25.80;58.61;99375.94;5025254;28;19966;-65
2021/07/08 12:11:20;;;;;;;;;;;;;;;25.52;51.88;99388.13;5025688;28;19921;-65
2021/07/08 12:13:48;;;;;;;;;;;;;;;25.12;51.71;99375.72;4992789;28;19917;-65
2021/07/08 12:16:14;;;;;;;;;;;;;;;24.61;56.25;99374.81;5027608;28;19917;-64
2021/07/08 12:18:47;;;;;;;;;;;;;;;26.03;53.76;99368.63;5027753;28;19913;-64
2021/07/08 12:21:35;;;;;;;;;;;;;;;25.05;54.77;99374.59;4993304;28;19921;-64
2021/07/08 12:24:03;;;;;;;;;;;;;;;25.98;57.79;99365.56;5013439;28;19917;-64
2021/07/08 12:26:33;;;;;;;;;;;;;;;25.67;60.12;99367.44;5028055;28;19925;-65
2021/07/08 12:29:10;;;;;;;;;;;;;;;25.96;54.61;99367.50;5024704;28;21798;-65
2021/07/08 12:31:47;;;;;;;;;;;;;;;24.94;57.53;99362.34;5024918;28;19917;-63
2021/07/08 12:34:13;;;;;;;;;;;;;;;24.65;57.38;99366.63;5009524;28;20024;-64
2021/07/08 12:36:38;;;;;;;;;;;;;;;24.67;56.66;99354.16;5025384;28;19949;-64
2021/07/08 12:39:04;;;;;;;;;;;;;;;25.36;58.90;99354.34;5008995;28;19937;-65
2021/07/08 12:41:30;;;;;;;;;;;;;;;25.09;54.93;99354.94;5007833;28;19929;-64
2021/07/08 12:43:55;;;;;;;;;;;;;;;24.55;57.66;99362.16;5024880;28;19932;-65
2021/07/08 12:46:27;;;;;;;;;;;;;;;25.53;52.67;99375.75;5008819;28;19956;-64